Nearby METAR Reports


KSYR - Syracuse, New York, USA
Distance from station: SE 5mi, 8km
Updated: Mon, 19-Feb-2018 7:54pm EST
Light rain, Overcast
Light rain, Overcast
 Wind from E
Wind: E 7 mph , 11 km/h
Temperature: 41°F , 5°C
Wind Chill: 36°F , 2°C
Dew Point: 41°F , 5°C
Humidity: 100%
Barometer: 30.10 inHg , 1019.3 hPa
Summary: Light rain
Clouds: Overcast
Visibility: 10 miles , 16 km
Cloud details: Partly cloudy 2300 ft
Mostly cloudy 3800 ft
Overcast 8500 ft
2018/02/20 00:54 KSYR 200054Z 08006KT 10SM -RA SCT023 BKN038 OVC085 05/05 A3010 RMK AO2 SLP193 P0006 T00500050 $
KFZY - Fulton, New York, USA
Distance from station: NW 17mi, 27km
Updated: Mon, 19-Feb-2018 8:04pm EST
Light rain, Mist, Overcast
Light rain, Mist, Overcast
 Wind from SE
Wind: SE 6 mph , 9 km/h
Temperature: 39°F , 4°C
Wind Chill: 35°F , 2°C
Dew Point: 39°F , 4°C
Humidity: 100%
Barometer: 30.10 inHg , 1019.3 hPa
Summary: Light rain, Mist
Clouds: Overcast
Visibility: 6 miles , 10 km
Cloud details: Partly cloudy 300 ft
Partly cloudy 1200 ft
Overcast 2600 ft
2018/02/20 01:04 KFZY 200104Z AUTO 13005KT 6SM -RA BR SCT003 SCT012 OVC026 04/04 A3010 RMK AO2 P0000 T00440039
 
KRME - Rome/Griffiss Af, New York, USA
Distance from station: E 39mi, 62km
Updated: Mon, 19-Feb-2018 7:53pm EST
Rain, Mist, Overcast
Rain, Mist, Overcast
 Wind from E
Wind: E 10 mph , 17 km/h
Temperature: 39°F , 4°C
Wind Chill: 32°F , 0°C
Dew Point: 37°F , 3°C
Humidity: 93%
Barometer: 30.18 inHg , 1022 hPa
Summary: Rain, Mist
Clouds: Overcast
Visibility: 6 miles , 10 km
Cloud details: Overcast 1700 ft
2018/02/20 00:53 KRME 200053Z 09009KT 6SM RA BR OVC017 04/03 A3018 RMK AO2 SLP223 P0011 T00390033
KITH - Ithaca/Tompkins, New York, USA
Distance from station: SSW 51mi, 82km
Updated: Mon, 19-Feb-2018 7:56pm EST
Light rain, Mostly cloudy
Light rain, Mostly cloudy
 Wind from SSE
Wind: SSE 17 mph , 28 km/h, Gust: 24 mph , 39 km/h
Temperature: 43°F , 6°C
Wind Chill: 35°F , 2°C
Dew Point: 41°F , 5°C
Humidity: 93%
Barometer: 30.15 inHg , 1021 hPa
Summary: Light rain
Clouds: Mostly cloudy
Visibility: 10 miles , 16 km
Cloud details: Partly cloudy 5000 ft
Mostly cloudy 7000 ft
2018/02/20 00:56 KITH 200056Z 16015G21KT 10SM -RA SCT050 BKN070 06/05 A3015 RMK AO2 SLP217 P0002 T00610050
 
KART - Watertown, New York, USA
Distance from station: N 56mi, 91km
Updated: Mon, 19-Feb-2018 8:09pm EST
Light rain, Mist, Overcast
Light rain, Mist, Overcast
 Wind from SSE
Wind: SSE 10 mph , 17 km/h
Temperature: 43°F , 6°C
Wind Chill: 37°F , 3°C
Dew Point: 41°F , 5°C
Humidity: 93%
Barometer: 30.07 inHg , 1018.3 hPa
Summary: Light rain, Mist
Clouds: Overcast
Visibility: 3 miles , 5 km
Cloud details: Partly cloudy 1700 ft
Overcast 2800 ft
2018/02/20 01:09 KART 200109Z AUTO 16009KT 3SM -RA BR SCT017 OVC028 06/05 A3007 RMK AO2 P0000 T00560050
KPEO - Penn Yan, New York, USA
Distance from station: SW 58mi, 93km
Updated: Mon, 19-Feb-2018 7:53pm EST
Light rain, Overcast
Light rain, Overcast
 Wind from SW
Wind: SW 8 mph , 13 km/h
Temperature: 45°F , 7°C
Wind Chill: 41°F , 5°C
Dew Point: 39°F , 4°C
Humidity: 81%
Barometer: 30.10 inHg , 1019.3 hPa
Summary: Light rain
Clouds: Overcast
Visibility: 10 miles , 16 km
Cloud details: Partly cloudy 4300 ft
Overcast 10000 ft
2018/02/20 00:53 KPEO 200053Z AUTO 22007KT 10SM -RA SCT043 OVC100 07/04 A3010 RMK AO2 SLP199 P0001 T00670044
 
KGTB - Fort Drum/Wheele, New York, USA
Distance from station: NNE 64mi, 102km
Updated: Mon, 19-Feb-2018 8:02pm EST
Light rain, Overcast
Light rain, Overcast
 Wind from SSE
Wind: SSE 16 mph , 26 km/h
Temperature: 37°F , 3°C
Wind Chill: 28°F , -2°C
Dew Point: 36°F , 2°C
Humidity: 93%
Barometer: 30.08 inHg , 1018.6 hPa
Summary: Light rain
Clouds: Overcast
Visibility: 10 miles , 16 km
Cloud details: Partly cloudy 500 ft
Mostly cloudy 1300 ft
Overcast 1800 ft
2018/02/20 01:02 KGTB 200102Z 15014KT 10SM -RA SCT005 BKN013 OVC018 03/02 A3008 RMK AO2A RAB02 CIG 012 RWY03 SLPNO ALSTG/SLP ESTMD TSNO $
CWQP - Point Petre (mar, Ontario, Canada
Distance from station: NW 67mi, 107km
Updated: Mon, 19-Feb-2018 8:00pm EST

 Wind from SSE
Wind: SSE 18 mph , 30 km/h
Temperature: 37°F , 3°C
Wind Chill: 27°F , -3°C
Dew Point: 36°F , 2°C
Humidity: 93%
2018/02/20 01:00 CWQP 200100Z AUTO 16016KT 03/02 RMK AO1 SOG 09 8005 PK WND 17022/0008 SLP181 T00260018
 
KBGM - Binghamton, New York, USA
Distance from station: S 67mi, 107km
Updated: Mon, 19-Feb-2018 7:53pm EST
Light rain, Overcast
Light rain, Overcast
 Wind from S
Wind: S 12 mph , 19 km/h
Temperature: 39°F , 4°C
Wind Chill: 32°F , 0°C
Dew Point: 37°F , 3°C
Humidity: 93%
Barometer: 30.19 inHg , 1022.4 hPa
Summary: Light rain
Clouds: Overcast
Visibility: 7 miles , 11 km
Cloud details: Mostly cloudy 200 ft
Overcast 8000 ft
2018/02/20 00:53 KBGM 200053Z 19010KT 7SM -RA BKN002 OVC080 04/03 A3019 RMK AO2 SLP238 P0003 T00390033
CYGK - Kingston Arpt (m, Ontario, Canada
Distance from station: NNW 75mi, 121km
Updated: Mon, 19-Feb-2018 8:00pm EST
Light rain, Mist, Overcast
Light rain, Mist, Overcast
 Wind from SSW
Wind: SSW 6 mph , 9 km/h, Gust: 18 mph , 30 km/h
Temperature: 36°F , 2°C
Wind Chill: 31°F , -1°C
Dew Point: 36°F , 2°C
Humidity: 100%
Barometer: 30.07 inHg , 1018.3 hPa
Summary: Light rain, Mist
Clouds: Overcast
Visibility: 6 miles , 10 km
Cloud details: Partly cloudy 400 ft
Overcast 1100 ft
2018/02/20 01:00 CYGK 200100Z 21005G16KT 120V230 6SM -RA BR SCT004 OVC011 02/02 A3007 RMK SF3SC5 SLP188